Time;durP1;ratioP1;P1;durP2;ratioP2;P2;SDS_P1;SDS_P2;PMS_P1;PMS_P2;Temp;Humidity;BMP_temperature;BMP_pressure;BME280_temperature;BME280_humidity;BME280_pressure;Samples;Min_cycle;Max_cycle;Signal;HPM_P1;HPM_P2
2023/08/09 00:00:33;;;;;;;16.80;6.55;;;13.00;99.90;;;;;;5054463;28;20056;-74
2023/08/09 00:03:02;;;;;;;15.35;5.75;;;13.00;99.90;;;;;;5053779;28;20191;-74
2023/08/09 00:05:28;;;;;;;16.33;6.13;;;13.00;99.90;;;;;;5054476;28;20409;-74
2023/08/09 00:07:54;;;;;;;17.65;6.47;;;12.90;99.90;;;;;;5054352;28;20052;-76
2023/08/09 00:10:21;;;;;;;14.63;6.18;;;12.90;99.90;;;;;;5054234;28;20056;-75
2023/08/09 00:12:47;;;;;;;21.73;7.22;;;12.90;99.90;;;;;;5053045;28;20049;-75
2023/08/09 00:15:13;;;;;;;16.50;6.68;;;12.90;99.90;;;;;;5052885;28;20049;-74
2023/08/09 00:17:39;;;;;;;17.13;7.03;;;12.90;99.90;;;;;;5053060;28;20040;-75
2023/08/09 00:20:07;;;;;;;20.23;6.77;;;12.90;99.90;;;;;;5054127;28;20041;-75
2023/08/09 00:22:33;;;;;;;21.52;7.03;;;12.90;99.90;;;;;;5052889;28;20045;-75
2023/08/09 00:24:58;;;;;;;16.63;7.43;;;13.00;99.90;;;;;;5053954;28;20116;-75
2023/08/09 00:27:24;;;;;;;19.08;8.02;;;13.00;99.90;;;;;;5054491;28;20493;-74
2023/08/09 00:29:50;;;;;;;20.90;7.43;;;13.00;99.90;;;;;;5053599;28;20041;-75
2023/08/09 00:32:15;;;;;;;18.95;8.05;;;13.00;99.90;;;;;;5053589;28;20049;-76
2023/08/09 00:34:41;;;;;;;16.33;7.50;;;13.10;99.90;;;;;;5053050;28;20077;-75
2023/08/09 00:37:07;;;;;;;22.02;8.13;;;13.10;99.90;;;;;;5052878;28;20049;-73
2023/08/09 00:39:32;;;;;;;26.05;8.50;;;13.20;99.90;;;;;;5054223;28;20053;-75
2023/08/09 00:41:58;;;;;;;24.63;8.48;;;13.20;99.90;;;;;;5053572;28;20122;-77
2023/08/09 00:44:24;;;;;;;25.73;9.35;;;13.20;99.90;;;;;;5053714;28;20060;-74
2023/08/09 00:46:50;;;;;;;27.67;10.73;;;13.20;99.90;;;;;;5053611;28;20037;-75
2023/08/09 00:49:16;;;;;;;24.10;10.02;;;13.20;99.90;;;;;;5053584;28;20076;-74
2023/08/09 00:51:43;;;;;;;23.27;9.40;;;13.20;99.90;;;;;;5053561;28;20048;-74
2023/08/09 00:54:09;;;;;;;23.65;10.73;;;13.30;99.90;;;;;;5053475;28;20037;-74
2023/08/09 00:56:35;;;;;;;28.40;10.97;;;13.30;99.90;;;;;;5053598;28;20413;-74
2023/08/09 00:59:02;;;;;;;29.33;12.40;;;13.30;99.90;;;;;;5053487;28;20056;-76
2023/08/09 01:01:28;;;;;;;29.55;12.13;;;13.30;99.90;;;;;;5052162;28;20655;-74
2023/08/09 01:03:54;;;;;;;27.27;12.10;;;13.30;99.90;;;;;;5052566;28;20084;-76
2023/08/09 01:06:44;;;;;;;30.92;12.23;;;13.30;99.90;;;;;;5053662;28;20447;-77
2023/08/09 01:09:31;;;;;;;26.60;12.07;;;13.40;99.90;;;;;;5053725;28;20087;-75
2023/08/09 01:12:11;;;;;;;28.25;12.65;;;13.30;99.90;;;;;;5053427;28;20052;-76
2023/08/09 01:14:41;;;;;;;32.58;13.38;;;13.30;99.90;;;;;;5085695;28;20486;-75
2023/08/09 01:17:10;;;;;;;30.27;12.38;;;13.30;99.90;;;;;;5053656;28;20076;-77
2023/08/09 01:19:48;;;;;;;30.95;13.40;;;13.30;99.90;;;;;;5053265;28;20051;-75
2023/08/09 01:22:17;;;;;;;38.78;14.07;;;13.30;99.90;;;;;;5054191;28;20093;-74
2023/08/09 01:24:44;;;;;;;37.97;14.15;;;13.30;99.90;;;;;;5052241;28;20113;-77
2023/08/09 01:27:09;;;;;;;33.58;14.27;;;13.30;99.90;;;;;;5052140;28;20059;-75
2023/08/09 01:29:36;;;;;;;32.42;13.52;;;13.30;99.90;;;;;;5053271;28;20049;-75
2023/08/09 01:32:02;;;;;;;33.63;13.65;;;13.30;99.90;;;;;;5053515;28;20056;-76
2023/08/09 01:34:28;;;;;;;30.83;13.85;;;13.30;99.90;;;;;;5085421;28;20049;-76
2023/08/09 01:36:57;;;;;;;37.35;14.63;;;13.30;99.90;;;;;;5053268;28;20063;-76
2023/08/09 01:39:28;;;;;;;32.10;14.20;;;13.30;99.90;;;;;;5052788;28;20045;-75
2023/08/09 01:41:55;;;;;;;30.50;14.35;;;13.30;99.90;;;;;;5056065;28;20073;-75
2023/08/09 01:44:23;;;;;;;50.78;15.25;;;13.30;99.90;;;;;;5057195;28;20049;-76
2023/08/09 01:46:49;;;;;;;42.05;13.70;;;13.30;99.90;;;;;;5057189;28;20084;-76
2023/08/09 01:49:19;;;;;;;54.08;16.20;;;13.30;99.90;;;;;;5057299;28;20047;-77
2023/08/09 01:51:46;;;;;;;36.63;14.55;;;13.20;99.90;;;;;;5056841;28;20055;-75
2023/08/09 01:54:12;;;;;;;36.97;14.82;;;13.20;99.90;;;;;;5055617;28;20120;-76
2023/08/09 01:56:37;;;;;;;37.58;14.20;;;13.20;99.90;;;;;;5056866;28;20053;-75
2023/08/09 01:59:05;;;;;;;46.00;14.82;;;13.20;99.90;;;;;;5055627;28;20105;-76
2023/08/09 02:01:31;;;;;;;51.45;15.10;;;13.20;99.90;;;;;;5057326;28;20063;-75
2023/08/09 02:03:57;;;;;;;35.78;14.65;;;13.20;99.90;;;;;;5057375;28;20059;-76
2023/08/09 02:06:23;;;;;;;63.72;15.32;;;13.20;99.90;;;;;;5072010;28;20369;-74
2023/08/09 02:08:49;;;;;;;33.83;13.80;;;13.20;99.90;;;;;;5055673;28;20049;-76
2023/08/09 02:11:14;;;;;;;61.70;14.93;;;13.20;99.90;;;;;;5056200;28;20492;-75
2023/08/09 02:13:40;;;;;;;51.80;15.40;;;13.10;99.90;;;;;;5058458;28;20135;-75
2023/08/09 02:16:06;;;;;;;75.05;15.27;;;13.10;99.90;;;;;;5056660;28;20060;-76
2023/08/09 02:18:35;;;;;;;81.90;15.15;;;13.10;99.90;;;;;;5056637;28;20056;-78
2023/08/09 02:21:05;;;;;;;119.95;16.73;;;13.10;99.90;;;;;;5056489;28;20131;-75
2023/08/09 02:23:30;;;;;;;85.63;16.20;;;13.10;99.90;;;;;;5056740;28;20044;-75
2023/08/09 02:25:56;;;;;;;50.67;15.48;;;13.00;99.90;;;;;;5057145;28;20436;-76
2023/08/09 02:28:22;;;;;;;48.83;14.50;;;13.10;99.90;;;;;;5055843;28;20374;-73
2023/08/09 02:30:49;;;;;;;81.15;15.13;;;13.00;99.90;;;;;;5038475;28;20053;-74
2023/08/09 02:33:15;;;;;;;45.33;15.18;;;13.00;99.90;;;;;;5056135;28;20052;-76
2023/08/09 02:35:55;;;;;;;44.55;15.15;;;13.00;99.90;;;;;;5055406;28;20064;-75
2023/08/09 02:38:23;;;;;;;50.50;15.18;;;13.00;99.90;;;;;;5054816;28;20041;-76
2023/08/09 02:40:49;;;;;;;70.35;14.65;;;13.00;99.90;;;;;;5056055;28;20056;-75
2023/08/09 02:43:16;;;;;;;51.80;15.43;;;13.00;99.90;;;;;;5056177;28;20053;-75
2023/08/09 02:45:42;;;;;;;53.88;14.63;;;13.00;99.90;;;;;;5038064;28;20102;-74
2023/08/09 02:48:08;;;;;;;47.78;14.68;;;13.00;99.90;;;;;;5056470;28;20049;-76
2023/08/09 02:50:34;;;;;;;62.22;14.82;;;13.00;99.90;;;;;;5056349;28;20416;-76
2023/08/09 02:53:01;;;;;;;51.15;14.68;;;12.90;99.90;;;;;;5054370;28;20496;-76
2023/08/09 02:55:27;;;;;;;;;;;12.90;99.90;;;;;;5055203;28;20064;-74
2023/08/09 02:57:53;;;;;;;39.30;14.13;;;12.90;99.90;;;;;;5055998;28;19920;-75
2023/08/09 03:00:19;;;;;;;44.05;14.60;;;12.80;99.90;;;;;;5055696;28;20477;-76
2023/08/09 03:02:45;;;;;;;54.78;15.80;;;12.80;99.90;;;;;;5054572;28;20045;-74
2023/08/09 03:05:11;;;;;;;54.92;14.63;;;12.80;99.90;;;;;;5038115;28;20061;-74
2023/08/09 03:07:37;;;;;;;37.22;14.00;;;12.80;99.90;;;;;;5055980;28;20041;-76
2023/08/09 03:10:03;;;;;;;50.33;14.43;;;12.80;99.90;;;;;;5053984;28;20400;-75
2023/08/09 03:12:30;;;;;;;45.83;14.18;;;12.80;99.90;;;;;;5054610;28;20053;-76
2023/08/09 03:14:56;;;;;;;50.97;13.57;;;12.70;99.90;;;;;;5056041;28;20037;-75
2023/08/09 03:17:21;;;;;;;42.05;13.18;;;12.70;99.90;;;;;;5054489;28;20071;-76
2023/08/09 03:19:50;;;;;;;53.75;13.77;;;12.80;99.90;;;;;;5055932;28;20109;-76
2023/08/09 03:22:16;;;;;;;52.72;14.70;;;12.70;99.90;;;;;;5055749;28;20044;-76
2023/08/09 03:24:42;;;;;;;40.67;13.93;;;12.70;99.90;;;;;;5054976;28;20599;-76
2023/08/09 03:27:08;;;;;;;39.03;13.88;;;12.70;99.90;;;;;;5055938;28;20049;-76
2023/08/09 03:29:33;;;;;;;37.33;13.38;;;12.70;99.90;;;;;;5088030;28;20496;-75
2023/08/09 03:31:59;;;;;;;46.80;13.82;;;12.70;99.90;;;;;;5055717;28;20045;-76
2023/08/09 03:34:25;;;;;;;44.58;14.57;;;12.80;99.90;;;;;;5054216;28;20496;-77
2023/08/09 03:36:50;;;;;;;38.22;13.85;;;12.70;99.90;;;;;;5056137;28;20049;-76
2023/08/09 03:39:16;;;;;;;42.20;15.07;;;12.70;99.90;;;;;;5057799;28;20070;-77
2023/08/09 03:41:42;;;;;;;54.60;15.35;;;12.70;99.90;;;;;;5058292;28;20119;-77
2023/08/09 03:44:08;;;;;;;67.03;15.13;;;12.70;99.90;;;;;;5058439;28;20051;-77
2023/08/09 03:46:34;;;;;;;72.85;14.40;;;12.70;99.90;;;;;;5056452;28;20107;-76
2023/08/09 03:49:00;;;;;;;66.73;14.77;;;12.70;99.90;;;;;;5055978;28;20045;-78
2023/08/09 03:51:27;;;;;;;38.28;14.18;;;12.70;99.90;;;;;;5055961;28;20045;-77
2023/08/09 03:53:52;;;;;;;50.63;15.70;;;12.60;99.90;;;;;;5054940;28;20095;-77
2023/08/09 03:56:18;;;;;;;46.63;14.50;;;12.60;99.90;;;;;;5054964;28;20139;-78
2023/08/09 03:58:44;;;;;;;39.78;15.20;;;12.60;99.90;;;;;;5054624;28;20091;-79
2023/08/09 04:01:11;;;;;;;39.65;14.55;;;12.60;99.90;;;;;;5054817;28;20049;-77
2023/08/09 04:03:38;;;;;;;;;;;12.60;99.90;;;;;;5055013;28;20166;-77
2023/08/09 04:06:05;;;;;;;37.63;14.02;;;12.60;99.90;;;;;;5054618;28;19921;-77
2023/08/09 04:08:32;;;;;;;54.10;15.13;;;12.60;99.90;;;;;;5054998;28;20489;-77
2023/08/09 04:10:59;;;;;;;47.90;14.30;;;12.60;99.90;;;;;;5054507;28;20124;-77
2023/08/09 04:13:25;;;;;;;40.13;14.32;;;12.60;99.90;;;;;;5054355;28;20161;-76
2023/08/09 04:15:51;;;;;;;47.10;14.20;;;12.60;99.90;;;;;;5055296;28;20040;-77
2023/08/09 04:18:17;;;;;;;45.27;15.40;;;12.60;99.90;;;;;;5055289;28;20053;-76
2023/08/09 04:20:45;;;;;;;43.97;14.95;;;12.60;99.90;;;;;;5053568;28;20751;-77
2023/08/09 04:23:12;;;;;;;39.40;15.10;;;12.60;99.90;;;;;;5054281;28;20122;-76
2023/08/09 04:25:38;;;;;;;;;;;12.60;99.90;;;;;;5057349;28;20519;-75
2023/08/09 04:28:04;;;;;;;76.33;15.23;;;12.60;99.90;;;;;;5055810;28;19921;-76
2023/08/09 04:30:29;;;;;;;53.35;14.57;;;12.60;99.90;;;;;;5055927;28;20045;-76
2023/08/09 04:32:55;;;;;;;75.03;16.98;;;12.60;99.90;;;;;;5054849;28;20049;-78
2023/08/09 04:35:23;;;;;;;47.17;13.43;;;12.60;99.90;;;;;;5056545;28;20124;-77
2023/08/09 04:37:48;;;;;;;67.35;15.30;;;12.60;99.90;;;;;;5062915;28;20074;-77
2023/08/09 04:40:14;;;;;;;76.10;15.45;;;12.60;99.90;;;;;;5062203;28;20100;-76
2023/08/09 04:42:41;;;;;;;64.22;15.38;;;12.60;99.90;;;;;;5058623;28;20064;-73
2023/08/09 04:45:11;;;;;;;66.60;15.75;;;12.60;99.90;;;;;;5056721;28;20057;-76
2023/08/09 04:47:37;;;;;;;65.15;13.90;;;12.70;99.90;;;;;;5055674;28;20051;-77
2023/08/09 04:50:04;;;;;;;44.75;13.85;;;12.70;99.90;;;;;;5055676;28;20052;-78
2023/08/09 04:52:31;;;;;;;;;;;12.60;99.90;;;;;;5054863;28;20049;-77
2023/08/09 04:54:57;;;;;;;90.45;13.60;;;12.70;99.90;;;;;;5052544;28;19920;-78
2023/08/09 04:57:23;;;;;;;68.10;14.00;;;12.70;99.90;;;;;;5036724;28;20151;-78
2023/08/09 04:59:49;;;;;;;38.05;12.95;;;12.70;99.90;;;;;;5054429;28;20055;-77
2023/08/09 05:02:14;;;;;;;42.60;12.23;;;12.70;99.90;;;;;;5069462;28;20056;-77
2023/08/09 05:04:40;;;;;;;50.35;14.27;;;12.70;99.90;;;;;;5054045;28;20088;-79
2023/08/09 05:07:06;;;;;;;31.15;13.30;;;12.80;99.90;;;;;;5052502;28;20041;-77
2023/08/09 05:09:32;;;;;;;44.95;14.35;;;12.70;99.90;;;;;;5054045;28;20389;-77
2023/08/09 05:11:58;;;;;;;60.22;15.05;;;12.80;99.90;;;;;;5053298;28;20088;-77
2023/08/09 05:14:27;;;;;;;49.90;15.15;;;12.80;99.90;;;;;;5052435;28;20075;-77
2023/08/09 05:16:54;;;;;;;51.90;14.07;;;12.80;99.90;;;;;;5057761;28;20053;-77
2023/08/09 05:19:20;;;;;;;48.22;14.10;;;12.80;99.90;;;;;;5090649;28;20057;-78
2023/08/09 05:21:46;;;;;;;41.80;13.17;;;12.90;99.90;;;;;;5058015;28;20102;-78
2023/08/09 05:24:13;;;;;;;48.30;13.00;;;12.90;99.90;;;;;;5057834;28;20437;-76
2023/08/09 05:26:39;;;;;;;;;;;13.00;99.90;;;;;;5057078;28;20048;-78
2023/08/09 05:29:05;;;;;;;37.83;12.33;;;13.00;99.90;;;;;;5057656;28;19978;-77
2023/08/09 05:31:31;;;;;;;41.35;12.98;;;13.00;99.90;;;;;;5058345;28;20432;-78
2023/08/09 05:33:56;;;;;;;55.08;12.52;;;13.00;99.90;;;;;;5056314;28;20404;-78
2023/08/09 05:36:23;;;;;;;57.45;13.98;;;13.00;99.90;;;;;;5057460;28;20389;-77
2023/08/09 05:38:48;;;;;;;35.38;12.60;;;13.10;99.90;;;;;;5039865;28;20049;-78
2023/08/09 05:41:15;;;;;;;34.28;13.15;;;13.00;99.90;;;;;;5057471;28;20041;-76
2023/08/09 05:43:41;;;;;;;28.97;12.53;;;13.10;99.90;;;;;;5089292;28;20084;-77
2023/08/09 05:46:07;;;;;;;32.75;13.68;;;13.10;99.90;;;;;;5057500;28;20052;-78
2023/08/09 05:48:32;;;;;;;29.85;12.50;;;13.10;99.90;;;;;;5057437;28;20470;-80
2023/08/09 05:50:58;;;;;;;46.33;12.45;;;13.20;99.90;;;;;;5039345;28;20472;-78
2023/08/09 05:53:24;;;;;;;49.80;13.27;;;13.20;99.90;;;;;;5056112;28;20052;-78
2023/08/09 05:55:50;;;;;;;53.05;12.68;;;13.30;99.90;;;;;;5057033;28;20098;-75
2023/08/09 05:58:16;;;;;;;31.38;12.43;;;13.20;99.90;;;;;;5056900;28;20049;-78
2023/08/09 06:00:41;;;;;;;23.52;11.93;;;13.20;99.90;;;;;;5056861;28;20040;-75
2023/08/09 06:03:07;;;;;;;38.00;11.68;;;13.20;99.90;;;;;;5055687;28;20060;-80
2023/08/09 06:05:33;;;;;;;35.38;11.05;;;13.30;99.90;;;;;;5055758;28;20076;-79
2023/08/09 06:07:59;;;;;;;34.60;12.13;;;13.30;99.90;;;;;;5072470;28;20126;-78
2023/08/09 06:10:25;;;;;;;28.88;12.50;;;13.30;99.90;;;;;;5057476;28;20045;-77
2023/08/09 06:12:52;;;;;;;25.88;12.00;;;13.40;99.90;;;;;;5056006;28;20049;-77
2023/08/09 06:15:19;;;;;;;28.88;11.38;;;13.50;99.90;;;;;;5056927;28;20071;-76
2023/08/09 06:17:45;;;;;;;24.43;11.23;;;13.50;99.90;;;;;;5056859;28;20052;-77
2023/08/09 06:20:14;;;;;;;22.42;10.82;;;13.60;99.90;;;;;;5056840;28;20535;-79
2023/08/09 06:22:43;;;;;;;26.73;11.95;;;13.80;99.90;;;;;;5056518;28;20048;-80
2023/08/09 06:25:10;;;;;;;28.02;11.88;;;13.80;99.90;;;;;;5072651;28;20049;-77
2023/08/09 06:27:35;;;;;;;25.23;11.98;;;13.90;99.90;;;;;;5056410;28;20048;-79
2023/08/09 06:30:02;;;;;;;26.02;11.57;;;14.00;99.90;;;;;;5056508;28;20045;-78
2023/08/09 06:32:28;;;;;;;27.52;11.68;;;14.00;99.90;;;;;;5057298;28;20098;-78
2023/08/09 06:34:54;;;;;;;26.30;11.00;;;14.10;99.90;;;;;;5063702;28;20041;-79
2023/08/09 06:37:20;;;;;;;25.13;11.75;;;14.10;99.90;;;;;;5063463;28;20550;-78
2023/08/09 06:39:46;;;;;;;25.03;11.63;;;14.20;99.90;;;;;;5089163;28;20045;-78
2023/08/09 06:42:12;;;;;;;24.88;11.18;;;14.30;99.90;;;;;;5054850;28;20401;-77
2023/08/09 06:44:39;;;;;;;21.80;10.57;;;14.30;99.90;;;;;;5054690;28;20053;-77
2023/08/09 06:47:05;;;;;;;23.70;10.50;;;14.30;99.90;;;;;;5055373;28;20048;-77
2023/08/09 06:49:31;;;;;;;24.58;10.73;;;14.40;99.90;;;;;;5056062;28;20049;-77
2023/08/09 06:51:58;;;;;;;25.98;11.82;;;14.60;99.90;;;;;;5054855;28;20437;-78
2023/08/09 06:54:24;;;;;;;23.55;11.00;;;14.50;99.90;;;;;;5072375;28;20045;-75
2023/08/09 06:56:50;;;;;;;19.37;10.33;;;14.60;99.90;;;;;;5089247;28;20053;-77
2023/08/09 06:59:16;;;;;;;22.55;10.52;;;14.70;99.90;;;;;;5054438;28;20041;-76
2023/08/09 07:01:44;;;;;;;23.13;11.32;;;14.80;99.90;;;;;;5055882;28;20128;-77
2023/08/09 07:04:10;;;;;;;24.27;11.30;;;14.80;99.90;;;;;;5054866;28;20114;-77
2023/08/09 07:06:35;;;;;;;22.27;11.25;;;14.90;99.90;;;;;;5054898;28;20048;-76
2023/08/09 07:09:01;;;;;;;26.63;11.75;;;14.70;99.90;;;;;;5055680;28;20041;-76
2023/08/09 07:11:27;;;;;;;22.90;11.18;;;14.70;99.90;;;;;;5055989;28;20087;-77
2023/08/09 07:13:52;;;;;;;22.88;10.52;;;14.80;99.90;;;;;;5087831;28;20045;-78
2023/08/09 07:16:18;;;;;;;23.48;10.88;;;14.70;99.90;;;;;;5055466;28;20049;-78
2023/08/09 07:18:44;;;;;;;22.63;10.68;;;14.80;99.90;;;;;;5054245;28;20048;-77
2023/08/09 07:21:10;;;;;;;22.00;10.02;;;14.80;99.90;;;;;;5055479;28;20535;-78
2023/08/09 07:23:36;;;;;;;21.13;10.10;;;14.80;99.90;;;;;;5055459;28;20037;-76
2023/08/09 07:26:02;;;;;;;25.80;10.70;;;15.00;99.90;;;;;;5056309;28;20052;-74
2023/08/09 07:28:28;;;;;;;21.48;10.10;;;15.20;99.90;;;;;;5055217;28;20436;-75
2023/08/09 07:30:55;;;;;;;19.63;9.95;;;15.20;99.90;;;;;;5054998;28;20049;-76
2023/08/09 07:33:21;;;;;;;18.15;9.45;;;15.20;99.90;;;;;;5055836;28;20048;-78
2023/08/09 07:35:51;;;;;;;19.50;9.27;;;15.30;99.90;;;;;;5054767;28;20049;-77
2023/08/09 07:38:17;;;;;;;23.08;9.75;;;15.30;99.90;;;;;;5054418;28;20071;-78
2023/08/09 07:40:42;;;;;;;18.60;8.80;;;15.40;99.90;;;;;;5055481;28;20049;-77
2023/08/09 07:43:08;;;;;;;16.17;8.55;;;15.40;99.90;;;;;;5055010;28;20485;-76
2023/08/09 07:45:34;;;;;;;18.75;9.07;;;15.30;99.90;;;;;;5054182;28;20447;-78
2023/08/09 07:48:00;;;;;;;18.15;8.52;;;15.40;99.90;;;;;;5054049;28;20045;-77
2023/08/09 07:50:27;;;;;;;16.77;9.00;;;15.40;99.90;;;;;;5054449;28;20053;-77
2023/08/09 07:52:52;;;;;;;17.10;8.47;;;15.50;99.90;;;;;;5055791;28;20439;-77
2023/08/09 07:55:18;;;;;;;16.70;8.40;;;15.50;99.90;;;;;;5055451;28;20402;-78
2023/08/09 07:57:44;;;;;;;17.25;8.00;;;15.70;99.90;;;;;;5053474;28;20389;-77
2023/08/09 08:00:12;;;;;;;16.48;8.02;;;15.70;99.90;;;;;;5037256;28;20059;-75
2023/08/09 08:02:38;;;;;;;17.45;7.95;;;15.70;99.90;;;;;;5055022;28;20477;-75
2023/08/09 08:05:06;;;;;;;16.88;8.25;;;15.80;99.90;;;;;;5054252;28;20551;-76
2023/08/09 08:07:32;;;;;;;18.33;7.60;;;15.80;99.90;;;;;;5054408;28;20128;-74
2023/08/09 08:09:58;;;;;;;15.07;7.38;;;15.80;99.90;;;;;;5054990;28;20179;-77
2023/08/09 08:12:26;;;;;;;14.32;7.10;;;15.90;99.90;;;;;;5037065;28;20060;-79
2023/08/09 08:14:52;;;;;;;15.80;7.35;;;15.90;99.90;;;;;;5054433;28;20044;-75
2023/08/09 08:17:18;;;;;;;14.45;7.03;;;16.00;99.90;;;;;;5054427;28;20049;-76
2023/08/09 08:19:43;;;;;;;13.80;6.78;;;16.10;99.90;;;;;;5053025;28;20049;-76
2023/08/09 08:22:09;;;;;;;16.25;7.40;;;16.10;99.90;;;;;;5054762;28;20049;-76
2023/08/09 08:24:35;;;;;;;14.35;6.50;;;16.20;99.90;;;;;;5052935;28;20044;-75
2023/08/09 08:27:01;;;;;;;14.15;7.55;;;16.40;99.90;;;;;;5054243;28;20045;-75
2023/08/09 08:29:27;;;;;;;16.15;7.45;;;16.50;99.90;;;;;;5054004;28;20049;-80
2023/08/09 08:31:53;;;;;;;16.98;6.93;;;16.50;99.90;;;;;;5053022;28;20097;-78
2023/08/09 08:34:22;;;;;;;14.02;7.05;;;16.60;99.90;;;;;;5052407;28;20049;-75
2023/08/09 08:36:49;;;;;;;16.00;7.68;;;16.60;99.90;;;;;;5052881;28;20080;-75
2023/08/09 08:39:16;;;;;;;16.25;7.65;;;16.80;99.90;;;;;;5036757;28;20060;-77
2023/08/09 08:41:42;;;;;;;15.20;7.30;;;16.80;99.90;;;;;;5054253;28;20045;-77
2023/08/09 08:44:11;;;;;;;16.58;6.53;;;16.80;99.90;;;;;;5055444;28;20060;-78
2023/08/09 08:46:38;;;;;;;16.27;7.05;;;16.90;99.90;;;;;;5055029;28;20060;-74
2023/08/09 08:49:04;;;;;;;11.65;4.97;;;17.00;99.90;;;;;;5054285;28;20508;-75
2023/08/09 08:51:31;;;;;;;10.75;4.93;;;17.10;99.90;;;;;;5054179;28;20400;-77
2023/08/09 08:53:57;;;;;;;;;;;17.10;99.90;;;;;;5053951;28;20369;-77
2023/08/09 08:56:23;;;;;;;13.40;5.68;;;17.20;99.90;;;;;;5054030;28;19921;-76
2023/08/09 08:58:49;;;;;;;9.85;5.00;;;17.20;99.90;;;;;;5053795;28;20095;-78
2023/08/09 09:01:17;;;;;;;11.35;5.43;;;17.30;99.90;;;;;;5052651;28;20128;-74
2023/08/09 09:03:43;;;;;;;9.30;4.38;;;17.50;99.90;;;;;;5036784;28;20098;-77
2023/08/09 09:06:10;;;;;;;13.13;4.85;;;17.60;99.90;;;;;;5053643;28;20393;-77
2023/08/09 09:08:42;;;;;;;;;;;17.70;99.90;;;;;;5052753;28;20102;-76
2023/08/09 09:11:18;;;;;;;7.13;2.30;;;17.80;99.90;;;;;;5054009;28;19928;-76
2023/08/09 09:13:47;;;;;;;6.57;2.58;;;17.90;99.90;;;;;;5053415;28;20087;-75
2023/08/09 09:16:15;;;;;;;6.07;2.15;;;18.00;99.90;;;;;;5052382;28;20080;-75
2023/08/09 09:18:41;;;;;;;9.40;2.63;;;18.10;99.90;;;;;;5053311;28;20064;-76
2023/08/09 09:21:10;;;;;;;9.43;2.63;;;18.20;99.90;;;;;;5052224;28;20053;-74
2023/08/09 09:23:37;;;;;;;12.50;2.40;;;18.40;99.90;;;;;;5053301;28;20037;-74
2023/08/09 09:26:17;;;;;;;6.03;1.55;;;18.50;99.90;;;;;;5053339;28;20049;-75
2023/08/09 09:28:45;;;;;;;5.38;1.55;;;18.70;99.90;;;;;;5053237;28;20124;-75
2023/08/09 09:31:19;;;;;;;5.40;2.20;;;18.80;99.90;;;;;;5052099;28;20045;-76
2023/08/09 09:33:49;;;;;;;7.80;1.60;;;19.00;99.90;;;;;;5053775;28;20051;-76
2023/08/09 09:36:17;;;;;;;7.60;1.67;;;19.20;99.90;;;;;;5053159;28;20049;-78
2023/08/09 09:38:43;;;;;;;7.70;1.67;;;19.30;99.90;;;;;;5053022;28;20053;-76
2023/08/09 09:41:10;;;;;;;6.93;1.17;;;19.50;99.90;;;;;;5053281;28;20040;-75
2023/08/09 09:43:43;;;;;;;6.75;1.00;;;19.60;99.90;;;;;;5051834;28;20520;-74
2023/08/09 09:46:23;;;;;;;5.45;1.08;;;19.70;99.90;;;;;;5054752;28;20056;-74
2023/08/09 09:48:59;;;;;;;6.03;1.13;;;19.90;99.90;;;;;;5054134;28;20044;-75
2023/08/09 09:51:26;;;;;;;8.73;1.40;;;20.10;99.90;;;;;;5055308;28;20120;-77
2023/08/09 09:53:51;;;;;;;4.85;1.40;;;20.20;99.90;;;;;;5054941;28;20045;-75
2023/08/09 09:56:17;;;;;;;5.03;1.00;;;20.50;99.90;;;;;;5054374;28;20045;-73
2023/08/09 09:58:43;;;;;;;8.10;1.23;;;20.70;99.90;;;;;;5053760;28;20083;-76
2023/08/09 10:01:12;;;;;;;7.63;1.40;;;20.80;99.90;;;;;;5055387;28;20148;-78
2023/08/09 10:03:42;;;;;;;7.72;1.45;;;20.80;99.90;;;;;;5057128;28;20086;-77
2023/08/09 10:06:14;;;;;;;6.25;1.40;;;20.90;99.90;;;;;;5057618;28;20064;-76
2023/08/09 10:08:41;;;;;;;4.32;1.50;;;20.90;99.90;;;;;;5040058;28;20052;-77
2023/08/09 10:11:08;;;;;;;4.70;1.08;;;20.90;99.90;;;;;;5056687;28;20051;-77
2023/08/09 10:13:36;;;;;;;3.55;0.95;;;20.80;99.90;;;;;;5056154;28;20508;-76
2023/08/09 10:16:05;;;;;;;5.95;0.90;;;20.80;99.90;;;;;;5056744;28;20049;-74
2023/08/09 10:18:40;;;;;;;2.95;0.70;;;20.80;99.90;;;;;;5055793;28;20147;-75
2023/08/09 10:21:07;;;;;;;7.53;0.90;;;20.80;99.90;;;;;;5056474;28;20489;-76
2023/08/09 10:23:33;;;;;;;4.57;0.98;;;20.90;99.90;;;;;;5056656;28;20048;-75
2023/08/09 10:25:59;;;;;;;6.97;1.60;;;21.00;99.90;;;;;;5055368;28;20041;-76
2023/08/09 10:28:47;;;;;;;8.00;1.27;;;21.10;99.90;;;;;;5056987;28;20403;-75
2023/08/09 10:31:14;;;;;;;6.63;1.48;;;21.10;99.90;;;;;;5056614;28;20473;-75
2023/08/09 10:34:08;;;;;;;5.63;1.10;;;21.20;99.90;;;;;;5054944;28;20037;-75
2023/08/09 10:36:34;;;;;;;4.97;0.90;;;21.30;99.90;;;;;;5055522;28;20075;-75
2023/08/09 10:39:11;;;;;;;10.88;0.90;;;21.30;99.90;;;;;;5055688;28;20493;-73
2023/08/09 10:41:38;;;;;;;5.45;0.88;;;21.40;99.90;;;;;;5038497;28;20052;-75
2023/08/09 10:44:04;;;;;;;4.90;1.05;;;21.50;99.90;;;;;;5055066;28;20060;-76
2023/08/09 10:46:34;;;;;;;5.20;1.02;;;;;;;;;;5054845;28;20080;-74
2023/08/09 10:49:00;;;;;;;3.55;1.08;;;;;;;;;;5056025;28;20132;-75
2023/08/09 10:51:26;;;;;;;;;;;;;;;;;;5055153;28;20052;-75
2023/08/09 10:53:59;;;;;;;6.38;1.20;;;;;;;;;;5056011;28;19921;-75
2023/08/09 10:56:29;;;;;;;4.90;1.17;;;;;;;;;;5056595;28;20052;-75
2023/08/09 10:58:55;;;;;;;5.18;1.05;;;;;;;;;;5056592;28;20512;-75
2023/08/09 11:01:28;;;;;;;4.97;1.30;;;;;;;;;;5056359;28;20128;-75
2023/08/09 11:03:54;;;;;;;7.03;1.38;;;;;;;;;;5058568;28;20037;-75
2023/08/09 11:06:40;;;;;;;5.72;1.15;;;;;;;;;;5059470;28;20048;-75
2023/08/09 11:09:08;;;;;;;3.88;1.10;;;;;;;;;;5057886;28;20485;-75
2023/08/09 11:11:34;;;;;;;8.35;1.30;;;;;;;;;;5056663;28;20091;-76
2023/08/09 11:14:01;;;;;;;3.58;1.20;;;;;;;;;;5055244;28;20045;-76
2023/08/09 11:16:28;;;;;;;9.70;1.48;;;;;;;;;;5056572;28;20139;-74
2023/08/09 11:19:03;;;;;;;5.93;1.48;;;;;;;;;;5055772;28;20048;-78
2023/08/09 11:21:43;;;;;;;6.53;1.63;;;;;;;;;;5056156;28;20056;-77
2023/08/09 11:24:10;;;;;;;9.07;1.40;;;;;;;;;;5055030;28;20037;-76
2023/08/09 11:26:37;;;;;;;8.27;1.70;;;;;;;;;;5054100;28;20053;-75
2023/08/09 11:29:04;;;;;;;5.70;1.27;;;;;;;;;;5053980;28;20049;-80
2023/08/09 11:31:33;;;;;;;7.97;1.83;;;;;;;;;;5054331;28;20080;-76
2023/08/09 11:34:00;;;;;;;5.20;1.42;;;;;;;;;;5055167;28;20044;-77
2023/08/09 11:36:27;;;;;;;8.48;1.70;;;;;;;;;;5055507;28;20041;-75
2023/08/09 11:38:55;;;;;;;13.13;1.70;;;;;;;;;;5055506;28;20466;-76
2023/08/09 11:41:21;;;;;;;8.10;1.67;;;;;;;;;;5054469;28;20401;-75
2023/08/09 11:43:48;;;;;;;5.53;1.58;;;;;;;;;;5054001;28;20513;-76
2023/08/09 11:46:14;;;;;;;7.07;1.83;;;;;;;;;;5054866;28;20132;-78
2023/08/09 11:48:44;;;;;;;7.45;2.00;;;;;;;;;;5054649;28;20080;-75
2023/08/09 11:51:10;;;;;;;7.28;1.88;;;;;;;;;;5054723;28;20059;-76
2023/08/09 11:53:37;;;;;;;4.80;1.77;;;;;;;;;;5054600;28;20482;-76
2023/08/09 11:56:05;;;;;;;7.10;1.90;;;;;;;;;;5054309;28;20061;-75
2023/08/09 11:58:37;;;;;;;5.55;1.55;;;;;;;;;;5054155;28;20052;-75
2023/08/09 12:01:20;;;;;;;6.22;1.77;;;;;;;;;;5053813;28;20447;-76
2023/08/09 12:03:47;;;;;;;6.15;1.50;;;;;;;;;;5053193;28;20080;-75
2023/08/09 12:06:14;;;;;;;7.25;1.77;;;;;;;;;;5054632;28;20516;-77
2023/08/09 12:08:40;;;;;;;8.20;1.27;;;;;;;;;;5054466;28;20120;-75
2023/08/09 12:11:06;;;;;;;4.15;1.60;;;;;;;;;;5054181;28;20049;-75
2023/08/09 12:13:32;;;;;;;8.40;1.75;;;;;;;;;;5052903;28;20084;-75
2023/08/09 12:16:00;;;;;;;12.60;1.90;;;;;;;;;;5053220;28;20056;-77
2023/08/09 12:18:26;;;;;;;9.20;1.73;;;;;;;;;;5053408;28;20092;-76
2023/08/09 12:20:55;;;;;;;9.20;2.00;;;;;;;;;;5054201;28;20111;-75
2023/08/09 12:23:21;;;;;;;4.03;1.67;;;;;;;;;;5053851;28;20503;-74
2023/08/09 12:25:47;;;;;;;9.60;2.05;;;;;;;;;;5052723;28;20057;-75
2023/08/09 12:28:13;;;;;;;6.93;2.03;;;;;;;;;;5053866;28;20596;-74
2023/08/09 12:30:39;;;;;;;8.10;1.95;;;;;;;;;;5054629;28;20080;-72
2023/08/09 12:33:08;;;;;;;6.40;1.67;;;;;;;;;;5070080;28;20048;-75
2023/08/09 12:35:35;;;;;;;11.05;1.80;;;;;;;;;;5052269;28;20519;-75
2023/08/09 12:38:01;;;;;;;6.70;1.90;;;;;;;;;;5052714;28;20517;-75
2023/08/09 12:40:27;;;;;;;11.00;2.10;;;;;;;;;;5054369;28;20091;-75
2023/08/09 12:42:53;;;;;;;7.00;2.17;;;;;;;;;;5053915;28;20538;-80
2023/08/09 12:45:19;;;;;;;6.35;2.35;;;;;;;;;;5054707;28;20056;-75
2023/08/09 12:47:46;;;;;;;8.43;2.78;;;;;;;;;;5054052;28;20449;-74
2023/08/09 12:50:12;;;;;;;8.75;2.72;;;;;;;;;;5036192;28;20049;-75
2023/08/09 12:52:39;;;;;;;8.38;2.60;;;;;;;;;;5053324;28;20041;-76